Terminal Aerodrome Forecast
Issued by NWS

Home | Current Version | Previous Version | Text Only | Print | Product List | Glossary On
Versions: 1 2 3 4 5 6 7 8 9 10 11 12 13 14 15 16
017
FTUS46 KSEW 241727 CCA
TAFBLI
TAF COR
KBLI 241727Z 2418/2518 17007KT P6SM VCSH SCT030 OVC050
      TEMPO 2419/2420 6SM -RA BKN030 OVC050
     FM242000 19010KT P6SM BKN050 OVC080
     FM242200 19009KT P6SM SCT050 BKN080
     FM250000 17004KT P6SM SCT250=

USA.gov is the U.S. government's official web portal to all federal, state and local government web resources and services.